Auk-Alfa, Netherlands

4:42 PM CET on October 31, 2014 (GMT +0100)
Ekofisk | Change Station
CLOSE
Current Station
Airport
Location: Ekofisk,
Elevation: 10 ft
Nearby Weather Stations

Elev 10 ft 56.55 °N, 3.25 °E | Updated 22 minutes ago

Fog
Fog
54 °F
Feels Like 54 °F
N
24
Wind Variable Wind from South

Today
High -- | Low -- °F
--% Chance of Precip.
Yesterday
High -- | Low -- °F
Precip. -- in
7:57 AM 5:12 PM
First Quarter, 56% visible
Pressure 29.92 in
Visibility 0.1 miles
Clouds
Dew Point 54 °F
Humidity 100%
Rainfall 0.00 in
Snow Depth Not available.
UV Not available.
Pollen Not available.
Air Quality Not available.
Flu Activity Not available.
METAR ENEK 311520Z 19021KT 0100 FG VV001 12/12 Q1013 W12/S4

More Conditions Fewer Conditions

Pressure 29.92 in
Visibility 0.1 miles
Clouds
Dew Point 54 °F
Humidity 100%
Rainfall 0.00 in
Snow Depth Not available.
UV Not available.
Pollen Not available.
Air Quality Not available.
Flu Activity Not available.
METAR ENEK 311520Z 19021KT 0100 FG VV001 12/12 Q1013 W12/S4

More Conditions Fewer Conditions

10-Day Weather Forecast

Almanac

Astronomy

Oct. 31, 2014 Rise Set
Actual Time
Civil Twilight
Nautical Twilight
Astronomical Twilight
Moon
Length of Visible Light
Length of Day
Tomorrow will be .
, % of the Moon is Illuminated

Today's Extremes

Country Highs Country Lows

Community

WunderPhotos

Upload Photos

1,766,644 photos uploaded!

WunderBlogs® & News

Nearby

Air Quality

  Air Quality AQ Index Pollutant
Not available.

Snow Depth

Station Depth Elevation

Earthquake Activity

City Distance Mag. Time & Date
Minimum magnitude displayed is 2.5.

Coastal Water Temperatures

Place Temperature

Nearby Weather Stations